createdAt,value
2024-02-24T00:02:01.192Z,99241.28
2024-02-24T00:04:27.698Z,99238.72
2024-02-24T00:06:54.069Z,99244.75
2024-02-24T00:09:20.786Z,99242.00
2024-02-24T00:11:47.214Z,99244.53
2024-02-24T00:14:13.667Z,99242.84
2024-02-24T00:16:40.049Z,99245.28
2024-02-24T00:19:06.768Z,99246.97
2024-02-24T00:21:33.247Z,99249.50
2024-02-24T00:23:59.651Z,99239.13
2024-02-24T00:26:26.010Z,99237.41
2024-02-24T00:28:52.626Z,99250.34
2024-02-24T00:31:19.185Z,99244.53
2024-02-24T00:33:45.506Z,99239.28
2024-02-24T00:36:12.401Z,99236.75
2024-02-24T00:38:39.129Z,99246.38
2024-02-24T00:41:05.652Z,99242.13
2024-02-24T00:43:32.238Z,99236.88
2024-02-24T00:45:58.705Z,99250.69
2024-02-24T00:48:25.194Z,99247.28
2024-02-24T00:50:51.751Z,99244.81
2024-02-24T00:53:18.145Z,99250.81
2024-02-24T00:55:44.574Z,99246.53
2024-02-24T00:58:10.972Z,99252.38
2024-02-24T01:00:37.647Z,99252.38
2024-02-24T01:03:04.299Z,99249.00
2024-02-24T01:05:30.850Z,99242.25
2024-02-24T01:07:57.749Z,99245.72
2024-02-24T01:10:27.333Z,99248.97
2024-02-24T01:12:53.726Z,99255.84
2024-02-24T01:15:20.103Z,99246.47
2024-02-24T01:17:46.527Z,99250.66
2024-02-24T01:20:13.348Z,99245.72
2024-02-24T01:22:39.981Z,99247.38
2024-02-24T01:25:06.961Z,99250.91
2024-02-24T01:27:33.455Z,99255.16
2024-02-24T01:29:59.772Z,99257.75
2024-02-24T01:32:26.415Z,99257.81
2024-02-24T01:34:52.782Z,99256.19
2024-02-24T01:37:19.119Z,99258.75
2024-02-24T01:39:45.458Z,99262.25
2024-02-24T01:42:12.049Z,99259.63
2024-02-24T01:44:38.488Z,99263.91
2024-02-24T01:47:04.913Z,99260.56
2024-02-24T01:49:31.512Z,99254.69
2024-02-24T01:51:58.232Z,99256.44
2024-02-24T01:54:25.331Z,99254.78
2024-02-24T01:56:52.906Z,99258.28
2024-02-24T01:59:19.747Z,99255.84
2024-02-24T02:01:46.122Z,99255.84
2024-02-24T02:04:12.594Z,99254.03
2024-02-24T02:06:39.371Z,99251.47
2024-02-24T02:09:05.972Z,99253.28
2024-02-24T02:11:33.502Z,99251.56
2024-02-24T02:14:03.879Z,99249.03
2024-02-24T02:16:30.521Z,99249.88
2024-02-24T02:18:57.031Z,99254.13
2024-02-24T02:21:24.975Z,99262.78
2024-02-24T02:23:51.611Z,99270.41
2024-02-24T02:26:19.228Z,99269.63
2024-02-24T02:28:45.953Z,99268.66
2024-02-24T02:31:12.524Z,99277.31
2024-02-24T02:33:38.902Z,99279.84
2024-02-24T02:36:06.168Z,99277.25
2024-02-24T02:38:32.538Z,99287.56
2024-02-24T02:40:58.997Z,99287.59
2024-02-24T02:43:25.493Z,99291.88
2024-02-24T02:45:51.821Z,99285.00
2024-02-24T02:48:18.287Z,99282.41
2024-02-24T02:50:44.805Z,99281.53
2024-02-24T02:53:11.290Z,99281.59
2024-02-24T02:55:37.720Z,99273.84
2024-02-24T02:58:04.426Z,99278.13
2024-02-24T03:00:30.816Z,99272.16
2024-02-24T03:02:57.243Z,99271.31
2024-02-24T03:05:23.909Z,99272.19
2024-02-24T03:07:50.286Z,99266.22
2024-02-24T03:10:16.722Z,99274.78
2024-02-24T03:12:43.323Z,99268.00
2024-02-24T03:15:10.053Z,99270.59
2024-02-24T03:17:36.736Z,99278.38
2024-02-24T03:20:04.676Z,99276.72
2024-02-24T03:22:33.250Z,99293.03
2024-02-24T03:24:59.591Z,99287.03
2024-02-24T03:27:26.192Z,99290.53
2024-02-24T03:29:52.635Z,99285.28
2024-02-24T03:32:19.082Z,99291.28
2024-02-24T03:34:45.588Z,99286.22
2024-02-24T03:37:12.079Z,99289.63
2024-02-24T03:39:39.145Z,99286.25
2024-02-24T03:42:05.871Z,99293.13
2024-02-24T03:44:32.510Z,99291.41
2024-02-24T03:46:58.937Z,99287.06
2024-02-24T03:49:25.359Z,99292.25
2024-02-24T03:51:51.893Z,99285.41
2024-02-24T03:54:18.285Z,99294.06
2024-02-24T03:56:44.844Z,99289.78
2024-02-24T03:59:11.603Z,99287.22
2024-02-24T04:01:41.181Z,99295.78
2024-02-24T04:04:07.526Z,99296.66
2024-02-24T04:06:33.960Z,99303.47
2024-02-24T04:09:00.709Z,99304.41
2024-02-24T04:11:27.200Z,99298.41
2024-02-24T04:13:53.716Z,99310.41
2024-02-24T04:16:21.208Z,99305.28
2024-02-24T04:18:47.586Z,99308.72
2024-02-24T04:21:14.195Z,99308.72
2024-02-24T04:23:40.875Z,99305.28
2024-02-24T04:26:08.206Z,99301.06
2024-02-24T04:28:34.640Z,99291.59
2024-02-24T04:31:01.047Z,99303.56
2024-02-24T04:33:27.481Z,99307.88
2024-02-24T04:35:53.882Z,99319.84
2024-02-24T04:38:20.497Z,99319.84
2024-02-24T04:40:46.816Z,99314.69
2024-02-24T04:43:13.153Z,99323.28
2024-02-24T04:45:40.000Z,99325.00
2024-02-24T04:48:06.991Z,99321.56
2024-02-24T04:50:33.617Z,99315.59
2024-02-24T04:53:00.128Z,99322.47
2024-02-24T04:55:26.584Z,99320.81
2024-02-24T04:57:53.145Z,99319.16
2024-02-24T05:00:20.017Z,99317.47
2024-02-24T05:02:46.931Z,99314.94
2024-02-24T05:05:13.872Z,99316.63
2024-02-24T05:07:40.569Z,99314.94
2024-02-24T05:10:08.315Z,99314.97
2024-02-24T05:12:35.401Z,99320.94
2024-02-24T05:15:02.133Z,99315.84
2024-02-24T05:17:28.906Z,99320.97
2024-02-24T05:19:55.553Z,99328.66
2024-02-24T05:22:21.981Z,99331.28
2024-02-24T05:24:48.394Z,99338.13
2024-02-24T05:27:14.740Z,99335.56
2024-02-24T05:29:48.239Z,99335.56
2024-02-24T05:32:18.509Z,99344.13
2024-02-24T05:34:45.087Z,99337.28
2024-02-24T05:37:11.931Z,99345.84
2024-02-24T05:39:39.438Z,99353.56
2024-02-24T05:42:06.907Z,99349.25
2024-02-24T05:44:33.347Z,99362.94
2024-02-24T05:46:59.706Z,99360.44
2024-02-24T05:49:26.333Z,99356.13
2024-02-24T05:51:52.656Z,99360.41
2024-02-24T05:54:19.025Z,99359.56
2024-02-24T05:56:45.588Z,99357.81
2024-02-24T05:59:12.251Z,99356.94
2024-02-24T06:01:38.715Z,99351.81
2024-02-24T06:04:05.246Z,99353.50
2024-02-24T06:06:31.979Z,99360.38
2024-02-24T06:08:58.467Z,99361.25
2024-02-24T06:11:25.144Z,99363.81
2024-02-24T06:13:53.996Z,99368.09
2024-02-24T06:16:20.768Z,99362.97
2024-02-24T06:18:47.399Z,99363.75
2024-02-24T06:21:13.793Z,99364.59
2024-02-24T06:23:40.403Z,99363.75
2024-02-24T06:26:07.060Z,99367.09
2024-02-24T06:28:33.657Z,99366.22
2024-02-24T06:30:59.979Z,99367.88
2024-02-24T06:33:26.452Z,99372.13
2024-02-24T06:35:53.337Z,99377.25
2024-02-24T06:38:20.752Z,99390.06
2024-02-24T06:40:47.371Z,99390.06
2024-02-24T06:43:14.044Z,99385.78
2024-02-24T06:45:40.707Z,99383.25
2024-02-24T06:48:08.026Z,99388.34
2024-02-24T06:50:34.887Z,99393.50
2024-02-24T06:53:01.563Z,99407.19
2024-02-24T06:55:28.107Z,99390.88
2024-02-24T06:57:54.591Z,99391.69
2024-02-24T07:00:22.720Z,99391.56
2024-02-24T07:02:51.058Z,99394.97
2024-02-24T07:05:17.725Z,99396.63
2024-02-24T07:07:44.234Z,99394.88
2024-02-24T07:10:10.890Z,99402.56
2024-02-24T07:12:39.866Z,99399.06
2024-02-24T07:15:08.647Z,99414.47
2024-02-24T07:17:35.103Z,99411.84
2024-02-24T07:20:01.467Z,99414.41
2024-02-24T07:22:28.481Z,99408.38
2024-02-24T07:24:55.221Z,99414.34
2024-02-24T07:27:21.605Z,99413.41
2024-02-24T07:29:48.060Z,99414.22
2024-02-24T07:32:14.440Z,99419.38
2024-02-24T07:34:41.095Z,99421.91
2024-02-24T07:37:07.854Z,99427.09
2024-02-24T07:39:34.525Z,99427.13
2024-02-24T07:42:01.136Z,99425.47
2024-02-24T07:44:27.560Z,99420.25
2024-02-24T07:46:54.607Z,99427.16
2024-02-24T07:49:21.008Z,99421.97
2024-02-24T07:51:48.634Z,99434.00
2024-02-24T07:54:15.235Z,99436.53
2024-02-24T07:56:41.698Z,99436.50
2024-02-24T07:59:08.346Z,99435.63
2024-02-24T08:01:34.704Z,99429.63
2024-02-24T08:04:01.280Z,99440.72
2024-02-24T08:06:27.938Z,99434.66
2024-02-24T08:08:54.854Z,99443.13
2024-02-24T08:11:21.779Z,99443.97
2024-02-24T08:13:48.350Z,99444.72
2024-02-24T08:16:14.850Z,99451.38
2024-02-24T08:18:41.390Z,99449.69
2024-02-24T08:21:08.870Z,99458.34
2024-02-24T08:23:36.369Z,99472.00
2024-02-24T08:26:03.976Z,99471.88
2024-02-24T08:28:30.768Z,99461.63
2024-02-24T08:31:00.203Z,99466.78
2024-02-24T08:33:27.207Z,99467.50
2024-02-24T08:35:54.652Z,99470.84
2024-02-24T08:38:21.349Z,99471.75
2024-02-24T08:40:47.797Z,99473.50
2024-02-24T08:43:14.688Z,99473.47
2024-02-24T08:45:42.542Z,99463.94
2024-02-24T08:48:10.872Z,99469.97
2024-02-24T08:50:37.349Z,99477.63
2024-02-24T08:53:04.037Z,99472.38
2024-02-24T08:55:30.474Z,99474.91
2024-02-24T08:57:57.130Z,99478.19
2024-02-24T09:00:23.629Z,99478.19
2024-02-24T09:02:50.278Z,99480.66
2024-02-24T09:05:17.208Z,99474.59
2024-02-24T09:07:43.741Z,99466.91
2024-02-24T09:10:10.646Z,99479.78
2024-02-24T09:12:37.168Z,99471.09
2024-02-24T09:15:04.935Z,99476.16
2024-02-24T09:17:31.431Z,99487.28
2024-02-24T09:19:58.024Z,99477.75
2024-02-24T09:22:24.583Z,99485.41
2024-02-24T09:24:51.188Z,99487.91
2024-02-24T09:27:17.531Z,99492.06
2024-02-24T09:29:43.899Z,99492.72
2024-02-24T09:32:10.269Z,99491.47
2024-02-24T09:34:37.010Z,99482.66
2024-02-24T09:37:06.103Z,99487.72
2024-02-24T09:39:32.717Z,99492.69
2024-02-24T09:42:00.864Z,99497.09
2024-02-24T09:44:30.565Z,99499.47
2024-02-24T09:46:58.582Z,99503.56
2024-02-24T09:49:28.479Z,99510.13
2024-02-24T09:51:54.889Z,99510.06
2024-02-24T09:54:21.389Z,99509.91
2024-02-24T09:56:52.833Z,99510.63
2024-02-24T09:59:22.261Z,99513.19
2024-02-24T10:01:49.274Z,99515.88
2024-02-24T10:04:16.541Z,99520.97
2024-02-24T10:06:43.076Z,99519.81
2024-02-24T10:09:10.211Z,99518.75
2024-02-24T10:11:38.215Z,99515.91
2024-02-24T10:14:06.094Z,99518.06
2024-02-24T10:16:38.932Z,99512.88
2024-02-24T10:19:08.959Z,99513.59
2024-02-24T10:21:35.628Z,99523.72
2024-02-24T10:24:04.313Z,99512.84
2024-02-24T10:26:30.992Z,99515.34
2024-02-24T10:28:57.775Z,99521.13
2024-02-24T10:31:28.364Z,99516.19
2024-02-24T10:33:56.242Z,99516.19
2024-02-24T10:36:23.428Z,99529.69
2024-02-24T10:38:55.429Z,99526.59
2024-02-24T10:41:25.670Z,99523.69
2024-02-24T10:44:02.426Z,99527.19
2024-02-24T10:46:36.926Z,99535.97
2024-02-24T10:49:04.238Z,99524.25
2024-02-24T10:51:33.291Z,99532.09
2024-02-24T10:54:12.913Z,99538.28
2024-02-24T10:56:40.508Z,99529.22
2024-02-24T10:59:11.445Z,99529.94
2024-02-24T11:01:46.161Z,99530.22
2024-02-24T11:04:13.710Z,99529.19
2024-02-24T11:06:49.964Z,99518.84
2024-02-24T11:09:21.444Z,99524.50
2024-02-24T11:11:49.073Z,99523.00
2024-02-24T11:14:21.548Z,99518.75
2024-02-24T11:16:49.686Z,99517.59
2024-02-24T11:19:49.298Z,99519.00
2024-02-24T11:22:25.756Z,99519.81
2024-02-24T11:25:03.716Z,99522.34
2024-02-24T11:27:37.831Z,99522.81
2024-02-24T11:30:43.443Z,99526.41
2024-02-24T11:33:27.454Z,99532.03
2024-02-24T11:35:56.038Z,99525.25
2024-02-24T11:38:23.986Z,99527.16
2024-02-24T11:40:51.159Z,99527.19
2024-02-24T11:43:19.194Z,99520.16
2024-02-24T11:45:55.034Z,99530.25
2024-02-24T11:48:22.813Z,99528.41
2024-02-24T11:50:50.802Z,99534.53
2024-02-24T11:53:19.271Z,99536.44
2024-02-24T11:55:48.426Z,99529.16
2024-02-24T11:58:16.424Z,99526.47
2024-02-24T12:00:42.923Z,99518.94
2024-02-24T12:03:16.585Z,99516.97
2024-02-24T12:05:43.746Z,99525.59
2024-02-24T12:08:13.222Z,99521.47
2024-02-24T12:10:40.602Z,99523.22
2024-02-24T12:13:09.591Z,99526.16
2024-02-24T12:15:36.715Z,99530.78
2024-02-24T12:18:07.074Z,99526.91
2024-02-24T12:20:49.997Z,99519.94
2024-02-24T12:23:20.126Z,99528.50
2024-02-24T12:25:46.596Z,99530.84
2024-02-24T12:28:12.977Z,99527.09
2024-02-24T12:30:41.404Z,99532.78
2024-02-24T12:33:15.768Z,99522.88
2024-02-24T12:35:43.871Z,99525.28
2024-02-24T12:38:17.386Z,99520.19
2024-02-24T12:40:45.473Z,99528.38
2024-02-24T12:43:12.726Z,99524.22
2024-02-24T12:45:42.161Z,99526.63
2024-02-24T12:48:09.356Z,99529.03
2024-02-24T12:50:36.527Z,99526.66
2024-02-24T12:53:08.396Z,99526.81
2024-02-24T12:55:34.987Z,99536.38
2024-02-24T12:58:01.759Z,99533.13
2024-02-24T13:00:28.421Z,99534.81
2024-02-24T13:02:57.180Z,99529.25
2024-02-24T13:05:24.129Z,99536.75
2024-02-24T13:07:52.837Z,99529.78
2024-02-24T13:10:20.010Z,99535.00
2024-02-24T13:12:46.463Z,99535.66
2024-02-24T13:15:13.068Z,99530.31
2024-02-24T13:17:39.880Z,99532.53
2024-02-24T13:20:06.673Z,99530.44
2024-02-24T13:22:33.088Z,99523.97
2024-02-24T13:24:59.445Z,99533.69
2024-02-24T13:27:25.804Z,99532.25
2024-02-24T13:29:52.568Z,99545.19
2024-02-24T13:32:19.021Z,99537.53
2024-02-24T13:34:46.180Z,99546.03
2024-02-24T13:37:14.682Z,99552.63
2024-02-24T13:39:41.273Z,99541.28
2024-02-24T13:42:07.833Z,99550.03
2024-02-24T13:44:34.605Z,99548.84
2024-02-24T13:47:00.953Z,99555.41
2024-02-24T13:49:27.647Z,99558.53
2024-02-24T13:51:54.259Z,99555.22
2024-02-24T13:54:20.858Z,99555.13
2024-02-24T13:56:48.241Z,99547.88
2024-02-24T13:59:14.902Z,99545.56
2024-02-24T14:01:41.274Z,99559.56
2024-02-24T14:04:07.614Z,99553.75
2024-02-24T14:06:35.643Z,99553.00
2024-02-24T14:09:07.074Z,99559.88
2024-02-24T14:11:34.598Z,99564.59
2024-02-24T14:14:01.434Z,99562.34
2024-02-24T14:16:28.048Z,99562.28
2024-02-24T14:18:54.893Z,99562.25
2024-02-24T14:21:22.747Z,99567.19
2024-02-24T14:23:49.278Z,99568.19
2024-02-24T14:26:16.007Z,99568.69
2024-02-24T14:28:42.712Z,99572.28
2024-02-24T14:31:10.242Z,99570.53
2024-02-24T14:33:36.723Z,99568.66
2024-02-24T14:36:03.937Z,99566.84
2024-02-24T14:38:30.458Z,99569.38
2024-02-24T14:41:28.149Z,99569.75
2024-02-24T14:43:54.763Z,99569.94
2024-02-24T14:46:21.331Z,99570.91
2024-02-24T14:48:49.690Z,99576.22
2024-02-24T14:51:16.280Z,99580.53
2024-02-24T14:53:43.085Z,99588.97
2024-02-24T14:56:09.523Z,99589.16
2024-02-24T14:58:36.299Z,99583.59
2024-02-24T15:01:02.768Z,99585.25
2024-02-24T15:03:29.462Z,99595.66
2024-02-24T15:05:55.958Z,99593.00
2024-02-24T15:08:23.626Z,99591.28
2024-02-24T15:10:51.345Z,99584.59
2024-02-24T15:13:22.913Z,99591.59
2024-02-24T15:15:52.228Z,99586.44
2024-02-24T15:18:18.650Z,99587.19
2024-02-24T15:20:45.347Z,99593.38
2024-02-24T15:23:13.917Z,99594.19
2024-02-24T15:25:40.663Z,99596.16
2024-02-24T15:28:07.312Z,99599.84
2024-02-24T15:30:34.082Z,99593.91
2024-02-24T15:33:02.032Z,99594.00
2024-02-24T15:35:28.597Z,99589.75
2024-02-24T15:37:55.350Z,99600.63
2024-02-24T15:40:21.664Z,99591.25
2024-02-24T15:42:48.068Z,99595.66
2024-02-24T15:45:14.469Z,99600.22
2024-02-24T15:47:40.953Z,99604.75
2024-02-24T15:50:07.858Z,99607.09
2024-02-24T15:52:34.305Z,99608.97
2024-02-24T15:55:00.861Z,99607.38
2024-02-24T15:57:27.233Z,99615.19
2024-02-24T15:59:53.700Z,99619.69
2024-02-24T16:02:20.284Z,99618.94
2024-02-24T16:04:46.945Z,99627.47
2024-02-24T16:07:13.498Z,99628.47
2024-02-24T16:09:40.023Z,99638.25
2024-02-24T16:12:07.132Z,99670.28
2024-02-24T16:14:33.539Z,99699.16
2024-02-24T16:17:00.261Z,99700.47
2024-02-24T16:19:26.607Z,99711.22
2024-02-24T16:21:53.000Z,99719.19
2024-02-24T16:24:19.422Z,99714.34
2024-02-24T16:26:49.326Z,99711.03
2024-02-24T16:29:15.714Z,99722.13
2024-02-24T16:31:42.317Z,99720.34
2024-02-24T16:34:10.113Z,99716.88
2024-02-24T16:36:36.609Z,99724.59
2024-02-24T16:39:10.465Z,99723.81
2024-02-24T16:41:40.199Z,99726.41
2024-02-24T16:44:10.003Z,99723.91
2024-02-24T16:46:42.823Z,99724.06
2024-02-24T16:49:09.657Z,99719.72
2024-02-24T16:51:36.230Z,99726.56
2024-02-24T16:54:02.853Z,99725.69
2024-02-24T16:56:29.519Z,99730.91
2024-02-24T16:58:55.928Z,99739.47
2024-02-24T17:01:23.222Z,99738.63
2024-02-24T17:03:49.747Z,99743.72
2024-02-24T17:06:16.518Z,99746.41
2024-02-24T17:08:45.397Z,99724.19
2024-02-24T17:11:11.892Z,99700.09
2024-02-24T17:13:38.624Z,99716.41
2024-02-24T17:16:06.220Z,99725.84
2024-02-24T17:18:36.595Z,99728.47
2024-02-24T17:21:03.994Z,99736.22
2024-02-24T17:23:30.625Z,99738.78
2024-02-24T17:25:57.012Z,99739.59
2024-02-24T17:28:23.606Z,99745.72
2024-02-24T17:30:50.594Z,99752.69
2024-02-24T17:33:17.049Z,99746.75
2024-02-24T17:35:43.749Z,99763.94
2024-02-24T17:38:10.238Z,99771.75
2024-02-24T17:40:36.644Z,99769.22
2024-02-24T17:43:04.003Z,99764.97
2024-02-24T17:45:30.510Z,99765.03
2024-02-24T17:47:56.929Z,99777.97
2024-02-24T17:50:23.378Z,99782.25
2024-02-24T17:52:49.875Z,99791.81
2024-02-24T17:55:19.290Z,99795.34
2024-02-24T17:57:46.628Z,99800.59
2024-02-24T18:00:13.735Z,99799.78
2024-02-24T18:02:40.502Z,99804.00
2024-02-24T18:05:07.473Z,99808.31
2024-02-24T18:07:34.281Z,99804.94
2024-02-24T18:10:00.643Z,99812.72
2024-02-24T18:12:27.040Z,99812.75
2024-02-24T18:14:54.102Z,99812.75
2024-02-24T18:17:20.756Z,99813.53
2024-02-24T18:19:50.492Z,99814.41
2024-02-24T18:22:16.820Z,99817.06
2024-02-24T18:24:46.172Z,99823.13
2024-02-24T18:27:12.873Z,99813.72
2024-02-24T18:29:40.369Z,99825.75
2024-02-24T18:32:07.838Z,99824.06
2024-02-24T18:34:34.537Z,99823.22
2024-02-24T18:37:01.064Z,99828.34
2024-02-24T18:39:28.231Z,99835.28
2024-02-24T18:41:54.934Z,99831.00
2024-02-24T18:44:21.512Z,99833.53
2024-02-24T18:46:47.924Z,99826.66
2024-02-24T18:49:14.525Z,99828.44
2024-02-24T18:51:41.099Z,99832.75
2024-02-24T18:54:07.917Z,99831.03
2024-02-24T18:56:34.720Z,99835.31
2024-02-24T18:59:02.372Z,99833.63
2024-02-24T19:01:28.821Z,99829.31
2024-02-24T19:03:55.444Z,99827.66
2024-02-24T19:06:22.122Z,99825.97
2024-02-24T19:08:48.550Z,99832.00
2024-02-24T19:11:15.111Z,99832.88
2024-02-24T19:13:41.544Z,99832.03
2024-02-24T19:16:08.156Z,99834.63
2024-02-24T19:18:35.110Z,99832.06
2024-02-24T19:21:01.970Z,99837.19
2024-02-24T19:23:29.643Z,99836.34
2024-02-24T19:25:57.517Z,99832.94
2024-02-24T19:28:24.134Z,99828.63
2024-02-24T19:30:50.814Z,99826.94
2024-02-24T19:33:17.716Z,99827.81
2024-02-24T19:35:44.178Z,99826.13
2024-02-24T19:38:11.860Z,99830.41
2024-02-24T19:40:38.310Z,99833.00
2024-02-24T19:43:04.762Z,99837.31
2024-02-24T19:45:31.250Z,99835.59
2024-02-24T19:47:57.991Z,99830.44
2024-02-24T19:50:24.436Z,99832.16
2024-02-24T19:52:51.265Z,99835.59
2024-02-24T19:55:19.648Z,99839.88
2024-02-24T19:57:47.447Z,99845.06
2024-02-24T20:00:14.323Z,99841.66
2024-02-24T20:02:40.806Z,99852.81
2024-02-24T20:05:09.158Z,99851.09
2024-02-24T20:07:35.922Z,99847.69
2024-02-24T20:10:02.393Z,99845.09
2024-02-24T20:12:28.851Z,99842.50
2024-02-24T20:14:55.475Z,99840.78
2024-02-24T20:17:22.052Z,99844.19
2024-02-24T20:19:48.543Z,99847.63
2024-02-24T20:22:15.580Z,99838.19
2024-02-24T20:24:42.634Z,99836.47
2024-02-24T20:27:11.509Z,99838.16
2024-02-24T20:29:38.013Z,99851.00
2024-02-24T20:32:04.706Z,99847.56
2024-02-24T20:34:31.384Z,99853.59
2024-02-24T20:36:57.770Z,99851.91
2024-02-24T20:39:24.146Z,99857.00
2024-02-24T20:41:50.742Z,99863.88
2024-02-24T20:44:18.464Z,99864.72
2024-02-24T20:46:46.311Z,99871.59
2024-02-24T20:49:15.439Z,99873.34
2024-02-24T20:51:42.029Z,99869.03
2024-02-24T20:54:08.456Z,99879.34
2024-02-24T20:56:35.130Z,99885.34
2024-02-24T20:59:01.727Z,99888.75
2024-02-24T21:01:28.537Z,99891.31
2024-02-24T21:03:55.044Z,99896.50
2024-02-24T21:06:21.526Z,99889.63
2024-02-24T21:08:48.274Z,99891.31
2024-02-24T21:11:14.655Z,99896.47
2024-02-24T21:13:41.149Z,99893.00
2024-02-24T21:16:07.935Z,99890.41
2024-02-24T21:18:35.025Z,99899.88
2024-02-24T21:21:01.942Z,99896.44
2024-02-24T21:23:28.437Z,99901.59
2024-02-24T21:25:54.791Z,99899.00
2024-02-24T21:28:21.154Z,99892.97
2024-02-24T21:30:48.445Z,99895.56
2024-02-24T21:33:15.336Z,99901.56
2024-02-24T21:35:42.497Z,99897.22
2024-02-24T21:38:08.868Z,99903.28
2024-02-24T21:40:35.351Z,99907.53
2024-02-24T21:43:04.698Z,99908.38
2024-02-24T21:45:32.393Z,99907.50
2024-02-24T21:47:59.062Z,99907.53
2024-02-24T21:50:25.815Z,99902.38
2024-02-24T21:52:52.563Z,99908.38
2024-02-24T21:55:21.311Z,99905.84
2024-02-24T21:57:47.991Z,99896.38
2024-02-24T22:00:19.999Z,99897.22
2024-02-24T22:02:46.846Z,99901.56
2024-02-24T22:05:14.261Z,99894.63
2024-02-24T22:07:41.695Z,99905.81
2024-02-24T22:10:09.488Z,99907.53
2024-02-24T22:12:35.942Z,99904.06
2024-02-24T22:15:03.176Z,99898.88
2024-02-24T22:17:29.677Z,99906.66
2024-02-24T22:19:56.236Z,99909.22
2024-02-24T22:22:22.644Z,99911.84
2024-02-24T22:24:49.228Z,99912.69
2024-02-24T22:27:15.822Z,99915.28
2024-02-24T22:29:43.211Z,99912.75
2024-02-24T22:32:09.639Z,99918.75
2024-02-24T22:34:36.146Z,99925.63
2024-02-24T22:37:02.539Z,99928.25
2024-02-24T22:39:28.976Z,99926.53
2024-02-24T22:41:55.464Z,99929.13
2024-02-24T22:44:21.904Z,99932.56
2024-02-24T22:46:48.266Z,99930.00
2024-02-24T22:49:15.116Z,99938.59
2024-02-24T22:51:41.702Z,99934.28
2024-02-24T22:54:08.504Z,99939.44
2024-02-24T22:56:36.208Z,99944.59
2024-02-24T22:59:03.107Z,99942.88
2024-02-24T23:01:31.762Z,99936.91
2024-02-24T23:03:58.977Z,99944.63
2024-02-24T23:06:25.734Z,99950.63
2024-02-24T23:08:52.218Z,99946.34
2024-02-24T23:11:26.042Z,99940.34
2024-02-24T23:14:00.178Z,99942.91
2024-02-24T23:16:28.835Z,99944.59
2024-02-24T23:18:56.880Z,99952.34
2024-02-24T23:21:23.779Z,99949.75
2024-02-24T23:23:50.177Z,99959.22
2024-02-24T23:26:16.599Z,99950.66
2024-02-24T23:28:43.851Z,99953.19
2024-02-24T23:31:10.355Z,99957.47
2024-02-24T23:33:36.981Z,99958.31
2024-02-24T23:36:03.857Z,99957.47
2024-02-24T23:38:30.288Z,99962.63
2024-02-24T23:40:56.695Z,99958.31
2024-02-24T23:43:23.148Z,99954.88
2024-02-24T23:45:49.752Z,99953.16
2024-02-24T23:48:16.247Z,99952.28
2024-02-24T23:50:42.702Z,99949.69
2024-02-24T23:53:09.064Z,99952.25
2024-02-24T23:55:35.455Z,99958.25
2024-02-24T23:58:02.170Z,99958.28
